CYBW/YBW METAR and TAF weather

Enter ICAO airport designator
Station Type Date Time Source
CYBW METAR 2021/05/13 05:00 UTC NOAA

CYBW 130500Z AUTO 25007KT 240V340 9SM BKN110 BKN130 BKN160 08/M00 A3004 RMK SLP189


Station Type Date Time Source
CYBW Decoded METAR 2021/05/13 05:00 UTC NOAA

Calgary / Springbank, Canada (CYBW) 51-06N 114-22W
May 13, 2021 - 01:00 AM EDT / 2021.05.13 0500 UTC
Wind: from the WSW (250 degrees) at 8 MPH (7 KT) (direction variable):0
Visibility: 9 mile(s):0
Sky conditions: mostly cloudy
Temperature: 46 F (8 C)
Dew Point: 32 F (0 C)
Relative Humidity: 56%
Pressure (altimeter): 30.04 in. Hg (1017 hPa)
ob: CYBW 130500Z AUTO 25007KT 240V340 9SM BKN110 BKN130 BKN160 08/M00 A3004 RMK SLP189
cycle: 5

Station Type Date Time Source
CYBW TAF 2021/05/12 18:00 UTC NOAA

TAF CYBW 121747Z 1218/1304 16010G20KT P6SM SCT050 BKN300
FM122000 16010G20KT P6SM BKN070 OVC220
BECMG 1300/1302 28005KT
RMK FCST BASED ON AUTO OBS. NXT FCST BY 130000Z

Example: see airport list